Ortley Beach, New Jersey
Current Conditions -  °F | °C
As of 5:15 PM on Thursday 23 Oct 2014 (Local Time) from KMJX Reporting Station
Overcast Overcast  
Wind Chill: 52°   Ceiling: 2600
Heat Index: 52°   Visibility: 10mi
Dew Point: 46°   Wind: 8mph
Humidity: 82%   Direction: 320°NW
Pressure: 29.73"   Gusts: 18mph
Location:  39.9485°N, 74.0761°W
Report Text: KMJX 232115Z AUTO 32007G16KT 10SM OVC026 11/08 A2973 RMK AO1
Loading
Personal Weather Stations






























Interactive Weather Map
Tropical Storm Tracking
New forecast layout! Learn more

10-Day Weather Forecast

Advertisements
Track Severe Weather on mobile